Terminal Aerodrome Forecast
Issued by NWS Goodland, KS

Home | Current Version | Previous Version | Text Only | Print | Product List | Glossary On
Versions: 1 2 3 4 5 6 7 8 9 10 11 12 13 14 15 16 17
000
FTUS43 KGLD 030529
TAFGLD
TAF
KGLD 030529Z 0306/0406 21011KT P6SM FEW250
     FM031700 16013G19KT P6SM SCT250
     FM040100 16017G27KT P6SM BKN250=

USA.gov is the U.S. government's official web portal to all federal, state and local government web resources and services.